Time;durP1;ratioP1;P1;durP2;ratioP2;P2;SDS_P1;SDS_P2;PMS_P1;PMS_P2;Temp;Humidity;BMP_temperature;BMP_pressure;BME280_temperature;BME280_humidity;BME280_pressure;Samples;Min_cycle;Max_cycle;Signal;HPM_P1;HPM_P2
2021/12/23 00:02:12;;;;;;;36.20;32.33;;;-1.40;99.90;;;;;;5040416;28;20468;-71
2021/12/23 00:04:39;;;;;;;43.40;34.53;;;-1.40;99.90;;;;;;5035931;28;20492;-71
2021/12/23 00:07:06;;;;;;;43.90;34.00;;;-1.40;99.90;;;;;;5036866;28;20453;-71
2021/12/23 00:10:01;;;;;;;43.83;36.20;;;-1.40;99.90;;;;;;5041088;28;20467;-71
2021/12/23 00:12:24;;;;;;;48.00;34.93;;;-1.40;99.90;;;;;;5033559;28;20489;-71
2021/12/23 00:14:52;;;;;;;41.37;33.37;;;-1.40;99.90;;;;;;5035456;28;21014;-72
2021/12/23 00:17:25;;;;;;;42.00;33.50;;;-1.40;99.90;;;;;;5039722;28;20595;-71
2021/12/23 00:23:21;;;;;;;49.93;36.63;;;-1.40;99.90;;;;;;5038207;28;20472;-71
2021/12/23 00:25:31;;;;;;;48.17;35.53;;;-1.40;99.90;;;;;;5034632;28;20497;-72
2021/12/23 00:27:58;;;;;;;49.33;36.10;;;-1.40;99.90;;;;;;5041590;28;20970;-73
2021/12/23 00:30:25;;;;;;;39.30;32.37;;;-1.30;99.90;;;;;;5045486;28;20459;-71
2021/12/23 00:32:51;;;;;;;48.20;34.63;;;-1.40;99.90;;;;;;5039720;28;21126;-71
2021/12/23 00:35:18;;;;;;;41.43;34.90;;;-1.30;99.90;;;;;;5038687;28;20551;-72
2021/12/23 00:37:47;;;;;;;43.37;32.53;;;-1.20;99.90;;;;;;5041464;28;20460;-72
2021/12/23 00:40:16;;;;;;;39.93;34.30;;;-1.30;99.90;;;;;;5041364;28;20841;-71
2021/12/23 00:42:44;;;;;;;44.20;34.17;;;-1.30;99.90;;;;;;5043161;28;20484;-71
2021/12/23 00:45:11;;;;;;;39.07;33.50;;;-1.40;99.90;;;;;;5038623;28;20506;-71
2021/12/23 00:47:38;;;;;;;44.20;34.57;;;-1.40;99.90;;;;;;5039930;28;20484;-72
2021/12/23 00:50:06;;;;;;;47.93;34.93;;;-1.50;99.90;;;;;;5038438;28;20473;-71
2021/12/23 00:52:35;;;;;;;41.37;33.67;;;-1.50;99.90;;;;;;5039872;28;20461;-71
2021/12/23 00:55:03;;;;;;;46.00;34.70;;;-1.50;99.90;;;;;;5043618;28;20864;-73
2021/12/23 00:57:31;;;;;;;41.17;32.70;;;-1.60;99.90;;;;;;5031952;28;20472;-71
2021/12/23 01:00:00;;;;;;;49.63;35.20;;;-1.60;99.90;;;;;;5035163;28;20555;-71
2021/12/23 01:02:30;;;;;;;47.23;34.33;;;-1.60;99.90;;;;;;5037770;28;20473;-71
2021/12/23 01:04:57;;;;;;;51.43;35.37;;;-1.60;99.90;;;;;;5038181;28;20527;-72
2021/12/23 01:07:24;;;;;;;44.67;33.90;;;-1.60;99.90;;;;;;5037632;28;20469;-72
2021/12/23 01:09:51;;;;;;;53.40;34.90;;;-1.60;99.90;;;;;;5039696;28;20517;-73
2021/12/23 01:12:23;;;;;;;51.93;36.73;;;-1.60;99.90;;;;;;5034056;28;20503;-72
2021/12/23 01:14:56;;;;;;;46.53;36.67;;;-1.60;99.90;;;;;;5040226;28;20533;-72
2021/12/23 01:17:52;;;;;;;43.80;35.27;;;-1.60;99.90;;;;;;5042668;28;20531;-73
2021/12/23 01:20:21;;;;;;;41.20;35.00;;;-1.50;99.90;;;;;;5034933;28;20464;-70
2021/12/23 01:22:48;;;;;;;51.50;35.87;;;-1.60;99.90;;;;;;5046625;28;20465;-72
2021/12/23 01:25:15;;;;;;;46.87;34.10;;;-1.60;99.90;;;;;;5040963;28;20502;-71
2021/12/23 01:27:42;;;;;;;50.87;36.30;;;-1.70;99.90;;;;;;5045588;28;20468;-73
2021/12/23 01:30:09;;;;;;;47.23;36.37;;;-1.60;99.90;;;;;;5039397;28;20464;-71
2021/12/23 01:32:38;;;;;;;43.80;32.90;;;-1.60;99.90;;;;;;5040610;28;20481;-71
2021/12/23 01:35:06;;;;;;;44.63;35.40;;;-1.70;99.90;;;;;;5037103;28;20840;-73
2021/12/23 01:37:33;;;;;;;46.23;34.37;;;-1.70;99.90;;;;;;5044143;28;20496;-71
2021/12/23 01:39:59;;;;;;;44.23;33.37;;;-1.80;99.90;;;;;;5041310;28;20462;-73
2021/12/23 01:42:27;;;;;;;46.53;36.90;;;-1.70;99.90;;;;;;5039180;28;20473;-71
2021/12/23 01:44:53;;;;;;;46.97;34.90;;;-1.70;99.90;;;;;;5043329;28;20497;-72
2021/12/23 01:47:20;;;;;;;40.53;33.07;;;-1.70;99.90;;;;;;5046228;28;21062;-70
2021/12/23 01:49:49;;;;;;;60.27;37.00;;;-1.70;99.90;;;;;;5038050;28;20465;-70
2021/12/23 01:52:16;;;;;;;51.50;35.33;;;-1.70;99.90;;;;;;5042026;28;20464;-73
2021/12/23 01:54:43;;;;;;;49.90;36.20;;;-1.70;99.90;;;;;;5037738;28;20502;-72
2021/12/23 01:57:11;;;;;;;63.87;38.17;;;-1.80;99.90;;;;;;5042809;28;20460;-73
2021/12/23 01:59:38;;;;;;;40.90;34.70;;;-1.80;99.90;;;;;;5044437;28;20963;-73
2021/12/23 02:02:05;;;;;;;51.80;37.33;;;-1.70;99.90;;;;;;5044170;28;20466;-73
2021/12/23 02:04:32;;;;;;;48.60;36.20;;;-1.70;99.90;;;;;;5039330;28;20494;-73
2021/12/23 02:07:01;;;;;;;54.43;37.90;;;-1.60;99.90;;;;;;5037361;28;20528;-72
2021/12/23 02:09:28;;;;;;;55.23;37.37;;;-1.60;99.90;;;;;;5039360;28;20461;-70
2021/12/23 02:11:55;;;;;;;47.90;35.77;;;-1.50;99.90;;;;;;5043491;28;20461;-71
2021/12/23 02:14:23;;;;;;;48.97;38.40;;;-1.30;99.90;;;;;;5043832;28;20470;-72
2021/12/23 02:16:50;;;;;;;49.30;35.40;;;-1.30;99.90;;;;;;5047620;28;20467;-71
2021/12/23 02:19:18;;;;;;;49.77;35.90;;;-1.20;99.90;;;;;;5044478;28;20464;-72
2021/12/23 02:21:48;;;;;;;50.70;37.90;;;-1.10;99.90;;;;;;5041901;28;20511;-72
2021/12/23 02:24:16;;;;;;;48.10;35.20;;;-1.00;99.90;;;;;;5039992;28;20583;-70
2021/12/23 02:26:44;;;;;;;49.13;37.07;;;-1.00;99.90;;;;;;5044452;28;20497;-71
2021/12/23 02:29:11;;;;;;;48.80;35.83;;;-1.00;99.90;;;;;;5044408;28;20470;-71
2021/12/23 02:31:39;;;;;;;52.83;36.83;;;-0.90;99.90;;;;;;5042867;28;20464;-72
2021/12/23 02:34:06;;;;;;;52.90;37.20;;;-0.80;99.90;;;;;;5037981;28;20475;-72
2021/12/23 02:36:33;;;;;;;51.13;35.57;;;-0.80;99.90;;;;;;5030609;28;20570;-73
2021/12/23 02:39:02;;;;;;;52.40;36.63;;;-0.70;99.90;;;;;;5043508;28;21101;-73
2021/12/23 02:41:28;;;;;;;45.37;34.57;;;-0.70;99.90;;;;;;5043277;28;20474;-72
2021/12/23 02:43:55;;;;;;;53.50;36.17;;;-0.70;99.90;;;;;;5040322;28;20474;-72
2021/12/23 02:46:23;;;;;;;53.73;35.27;;;-0.80;99.90;;;;;;5042959;28;21069;-71
2021/12/23 02:48:50;;;;;;;44.50;34.93;;;-0.80;99.90;;;;;;5039483;28;20486;-72
2021/12/23 02:51:18;;;;;;;43.97;34.57;;;-0.80;99.90;;;;;;5045191;28;20460;-71
2021/12/23 02:53:46;;;;;;;59.63;35.93;;;-0.80;99.90;;;;;;5043061;28;20466;-72
2021/12/23 02:56:16;;;;;;;49.87;35.63;;;-0.70;99.90;;;;;;5038632;28;20976;-69
2021/12/23 02:58:45;;;;;;;41.20;35.17;;;-0.60;99.90;;;;;;5041513;28;20504;-70
2021/12/23 03:01:13;;;;;;;45.00;33.17;;;-0.60;99.90;;;;;;5043056;28;20504;-71
2021/12/23 03:03:40;;;;;;;43.97;32.77;;;-0.70;99.90;;;;;;5043995;28;20487;-72
2021/12/23 03:06:07;;;;;;;60.10;34.43;;;-0.70;99.90;;;;;;5044120;28;20514;-70
2021/12/23 03:08:37;;;;;;;46.20;35.20;;;-0.80;99.90;;;;;;5039262;28;20460;-73
2021/12/23 03:11:05;;;;;;;50.13;35.87;;;-0.80;99.90;;;;;;5044963;28;20530;-72
2021/12/23 03:13:34;;;;;;;52.03;35.13;;;-1.00;99.90;;;;;;5042586;28;20465;-71
2021/12/23 03:16:01;;;;;;;56.23;37.37;;;-1.00;99.90;;;;;;5046157;28;20472;-70
2021/12/23 03:18:29;;;;;;;50.03;36.93;;;-1.00;99.90;;;;;;5046125;28;20472;-71
2021/12/23 03:20:56;;;;;;;58.13;37.67;;;-1.00;99.90;;;;;;5047618;28;20475;-70
2021/12/23 03:23:23;;;;;;;54.33;35.57;;;-1.00;99.90;;;;;;5043399;28;20484;-71
2021/12/23 03:25:50;;;;;;;55.37;38.37;;;-1.00;99.90;;;;;;5041361;28;20485;-70
2021/12/23 03:28:17;;;;;;;66.07;42.43;;;-1.00;99.90;;;;;;5043478;28;20465;-71
2021/12/23 03:30:46;;;;;;;51.03;35.53;;;-1.00;99.90;;;;;;5045361;28;20477;-71
2021/12/23 03:33:13;;;;;;;51.90;36.50;;;-0.90;99.90;;;;;;5039111;28;20497;-72
2021/12/23 03:35:41;;;;;;;55.33;36.03;;;-1.00;99.90;;;;;;5037384;28;20479;-73
2021/12/23 03:38:09;;;;;;;67.47;43.90;;;-1.00;99.90;;;;;;5041269;28;20477;-71
2021/12/23 03:40:36;;;;;;;57.37;39.70;;;-1.00;99.90;;;;;;5036318;28;20467;-73
2021/12/23 03:43:03;;;;;;;49.43;35.80;;;-1.00;99.90;;;;;;5037700;28;21099;-70
2021/12/23 03:45:30;;;;;;;54.53;34.77;;;-1.00;99.90;;;;;;5043070;28;20480;-70
2021/12/23 03:47:59;;;;;;;41.23;33.33;;;-0.90;99.90;;;;;;5038881;28;20478;-72
2021/12/23 03:50:27;;;;;;;53.10;36.13;;;-0.80;99.90;;;;;;5040809;28;20649;-72
2021/12/23 03:52:55;;;;;;;44.90;35.13;;;-0.80;99.90;;;;;;5037440;28;20465;-72
2021/12/23 03:55:22;;;;;;;47.03;33.73;;;-0.70;99.90;;;;;;5043685;28;20469;-72
2021/12/23 03:57:49;;;;;;;47.60;34.27;;;-0.70;99.90;;;;;;5041903;28;20486;-71
2021/12/23 04:00:18;;;;;;;47.33;33.23;;;-0.70;99.90;;;;;;5041513;28;20516;-72
2021/12/23 04:02:46;;;;;;;45.13;33.70;;;-0.70;99.90;;;;;;5043559;28;20464;-71
2021/12/23 04:05:15;;;;;;;53.73;33.43;;;-0.60;99.90;;;;;;5042821;28;20552;-73
2021/12/23 04:07:42;;;;;;;44.93;33.63;;;-0.60;99.90;;;;;;5045355;28;20497;-69
2021/12/23 04:10:13;;;;;;;46.07;33.40;;;-0.70;99.90;;;;;;5037415;28;21122;-71
2021/12/23 04:12:40;;;;;;;44.70;33.10;;;-0.70;99.90;;;;;;5039015;28;20461;-70
2021/12/23 04:15:07;;;;;;;42.27;32.40;;;-0.80;99.90;;;;;;5038703;28;20473;-71
2021/12/23 04:17:34;;;;;;;42.80;32.80;;;-0.80;99.90;;;;;;5040781;28;20472;-73
2021/12/23 04:20:13;;;;;;;52.23;33.13;;;-0.80;99.90;;;;;;5037456;28;20472;-72
2021/12/23 04:22:42;;;;;;;43.47;32.63;;;-0.90;99.90;;;;;;5035712;28;20474;-72
2021/12/23 04:25:10;;;;;;;46.77;35.40;;;-0.90;99.90;;;;;;5045528;28;20457;-71
2021/12/23 04:27:38;;;;;;;49.00;34.53;;;-0.80;99.90;;;;;;5039940;28;20499;-72
2021/12/23 04:30:06;;;;;;;49.27;35.83;;;-0.80;99.90;;;;;;5036122;28;20471;-72
2021/12/23 04:32:33;;;;;;;47.47;34.50;;;-0.70;99.90;;;;;;5036041;28;20517;-71
2021/12/23 04:35:00;;;;;;;43.43;34.73;;;-0.80;99.90;;;;;;5040405;28;20462;-71
2021/12/23 04:37:27;;;;;;;45.87;33.63;;;-0.90;99.90;;;;;;5037570;28;20465;-70
2021/12/23 04:39:55;;;;;;;44.07;35.67;;;-0.90;99.90;;;;;;5044807;28;20468;-73
2021/12/23 04:42:22;;;;;;;51.67;34.80;;;-1.00;99.90;;;;;;5041663;28;20465;-71
2021/12/23 04:44:49;;;;;;;43.30;34.17;;;-1.00;99.90;;;;;;5038337;28;20875;-70
2021/12/23 04:47:16;;;;;;;50.73;36.37;;;-1.00;99.90;;;;;;5038631;28;20998;-71
2021/12/23 04:49:43;;;;;;;42.83;34.70;;;-1.10;99.90;;;;;;5040279;28;20460;-71
2021/12/23 04:52:10;;;;;;;42.13;34.03;;;-1.10;99.90;;;;;;5039836;28;20825;-70
2021/12/23 04:54:37;;;;;;;42.20;34.67;;;-1.10;99.90;;;;;;5042408;28;20464;-71
2021/12/23 04:57:06;;;;;;;48.97;35.37;;;-1.10;99.90;;;;;;5039366;28;20473;-72
2021/12/23 04:59:33;;;;;;;47.07;35.17;;;-1.10;99.90;;;;;;5042758;28;20979;-71
2021/12/23 05:02:00;;;;;;;41.60;33.93;;;-1.20;99.90;;;;;;5044093;28;20536;-70
2021/12/23 05:04:27;;;;;;;42.67;32.77;;;-1.20;99.90;;;;;;5044275;28;20534;-71
2021/12/23 05:06:54;;;;;;;46.30;33.63;;;-1.30;99.90;;;;;;5042109;28;20488;-71
2021/12/23 05:09:20;;;;;;;47.70;36.90;;;-1.30;99.90;;;;;;5049593;28;20452;-72
2021/12/23 05:11:48;;;;;;;46.67;34.03;;;-1.30;99.90;;;;;;5046942;28;20467;-72
2021/12/23 05:14:16;;;;;;;42.33;32.67;;;-1.40;99.90;;;;;;5041912;28;20459;-72
2021/12/23 05:16:42;;;;;;;47.27;34.50;;;-1.30;99.90;;;;;;5041929;28;20470;-71
2021/12/23 05:19:10;;;;;;;45.00;34.87;;;-1.30;99.90;;;;;;5042718;28;20797;-70
2021/12/23 05:21:37;;;;;;;43.67;32.60;;;-1.30;99.90;;;;;;5040413;28;21047;-71
2021/12/23 05:24:04;;;;;;;42.90;34.90;;;-1.30;99.90;;;;;;5042569;28;20464;-70
2021/12/23 05:26:30;;;;;;;46.50;35.53;;;-1.30;99.90;;;;;;5041147;28;20484;-71
2021/12/23 05:28:57;;;;;;;50.53;33.03;;;-1.30;99.90;;;;;;5044554;28;20465;-72
2021/12/23 05:31:25;;;;;;;47.83;32.60;;;-1.30;99.90;;;;;;5044917;28;20456;-70
2021/12/23 05:33:52;;;;;;;41.10;35.00;;;-1.30;99.90;;;;;;5043097;28;20476;-71
2021/12/23 05:36:20;;;;;;;47.50;33.63;;;-1.30;99.90;;;;;;5043673;28;20470;-71
2021/12/23 05:38:46;;;;;;;49.27;34.20;;;-1.20;99.90;;;;;;5039345;28;20468;-71
2021/12/23 05:41:13;;;;;;;48.77;34.70;;;-1.20;99.90;;;;;;5041002;28;20460;-72
2021/12/23 05:43:40;;;;;;;50.73;34.60;;;-1.10;99.90;;;;;;5038265;28;20826;-73
2021/12/23 05:46:07;;;;;;;44.60;33.90;;;-1.00;99.90;;;;;;5044965;28;20476;-71
2021/12/23 05:48:35;;;;;;;53.77;34.73;;;-1.00;99.90;;;;;;5043701;28;21127;-71
2021/12/23 05:51:02;;;;;;;46.67;32.33;;;-1.00;99.90;;;;;;5043047;28;20462;-71
2021/12/23 05:53:29;;;;;;;43.47;34.40;;;-0.90;99.90;;;;;;5040935;28;20457;-70
2021/12/23 05:55:56;;;;;;;45.23;33.73;;;-0.80;99.90;;;;;;5044926;28;20471;-71
2021/12/23 05:58:23;;;;;;;47.47;34.70;;;-0.80;99.90;;;;;;5041418;28;20530;-71
2021/12/23 06:00:53;;;;;;;46.83;35.67;;;-0.80;99.90;;;;;;5044050;28;20464;-72
2021/12/23 06:03:20;;;;;;;47.67;36.57;;;-0.80;99.90;;;;;;5042919;28;20526;-73
2021/12/23 06:05:48;;;;;;;49.37;34.23;;;-0.70;99.90;;;;;;5049362;28;20513;-71
2021/12/23 06:08:15;;;;;;;43.63;33.20;;;-0.70;99.90;;;;;;5041406;28;20504;-70
2021/12/23 06:10:42;;;;;;;45.53;36.23;;;-0.60;99.90;;;;;;5044060;28;20473;-72
2021/12/23 06:13:09;;;;;;;50.83;35.90;;;-0.60;99.90;;;;;;5043698;28;20463;-70
2021/12/23 06:15:36;;;;;;;51.93;35.60;;;-0.60;99.90;;;;;;5039777;28;20507;-70
2021/12/23 06:18:03;;;;;;;48.37;35.27;;;-0.60;99.90;;;;;;5043766;28;20461;-73
2021/12/23 06:20:30;;;;;;;44.57;34.47;;;-0.60;99.90;;;;;;5049243;28;20957;-70
2021/12/23 06:22:58;;;;;;;49.60;36.40;;;-0.60;99.90;;;;;;5041134;28;20973;-72
2021/12/23 06:25:25;;;;;;;52.17;35.97;;;-0.50;99.90;;;;;;5034986;28;20461;-72
2021/12/23 06:27:52;;;;;;;57.17;37.83;;;-0.50;99.90;;;;;;5038224;28;20497;-70
2021/12/23 06:30:19;;;;;;;55.77;36.73;;;-0.50;99.90;;;;;;5046901;28;20459;-71
2021/12/23 06:32:47;;;;;;;51.23;34.87;;;-0.50;99.90;;;;;;5044073;28;20591;-72
2021/12/23 06:35:16;;;;;;;50.20;35.23;;;-0.60;99.90;;;;;;5040045;28;20500;-72
2021/12/23 06:37:44;;;;;;;53.80;35.47;;;-0.50;99.90;;;;;;5042544;28;20462;-71
2021/12/23 06:40:14;;;;;;;61.67;34.20;;;-0.50;99.90;;;;;;5041489;28;20493;-70
2021/12/23 06:42:41;;;;;;;50.33;34.10;;;-0.40;99.90;;;;;;5034993;28;20513;-70
2021/12/23 06:45:09;;;;;;;51.93;37.30;;;-0.40;99.90;;;;;;5044645;28;20462;-69
2021/12/23 06:47:36;;;;;;;46.07;34.30;;;-0.30;99.90;;;;;;5042924;28;20489;-72
2021/12/23 06:50:04;;;;;;;46.83;32.90;;;-0.30;99.90;;;;;;5040375;28;20459;-71
2021/12/23 06:52:32;;;;;;;52.07;35.43;;;-0.20;99.90;;;;;;5041680;28;20470;-70
2021/12/23 06:54:59;;;;;;;48.23;35.00;;;-0.20;99.90;;;;;;5033374;28;20463;-70
2021/12/23 06:57:27;;;;;;;43.53;34.43;;;-0.20;99.90;;;;;;5042751;28;20503;-72
2021/12/23 06:59:55;;;;;;;54.57;35.83;;;-0.30;99.90;;;;;;5043036;28;20483;-71
2021/12/23 07:02:22;;;;;;;53.43;35.43;;;-0.30;99.90;;;;;;5042027;28;20705;-70
2021/12/23 07:04:49;;;;;;;49.33;34.40;;;-0.30;99.90;;;;;;5043772;28;20528;-70
2021/12/23 07:07:26;;;;;;;52.20;34.60;;;-0.30;99.90;;;;;;5037020;28;20841;-70
2021/12/23 07:09:54;;;;;;;57.00;36.70;;;-0.30;99.90;;;;;;5043196;28;20555;-71
2021/12/23 07:12:22;;;;;;;55.23;35.50;;;-0.30;99.90;;;;;;5043511;28;20539;-69
2021/12/23 07:14:50;;;;;;;51.77;36.03;;;-0.20;99.90;;;;;;5041152;28;20461;-71
2021/12/23 07:17:17;;;;;;;50.27;34.47;;;-0.20;99.90;;;;;;5038872;28;20475;-71
2021/12/23 07:19:44;;;;;;;45.47;35.57;;;-0.20;99.90;;;;;;5042551;28;20809;-71
2021/12/23 07:22:12;;;;;;;46.57;32.40;;;-0.20;99.90;;;;;;5038033;28;20498;-72
2021/12/23 07:24:39;;;;;;;50.83;37.00;;;-0.10;99.90;;;;;;5037768;28;20500;-71
2021/12/23 07:27:07;;;;;;;51.00;36.73;;;-0.10;99.90;;;;;;5041230;28;20989;-70
2021/12/23 07:29:34;;;;;;;55.77;38.63;;;-0.10;99.90;;;;;;5043400;28;20465;-70
2021/12/23 07:32:04;;;;;;;47.70;35.50;;;-0.10;99.90;;;;;;5040701;28;20514;-72
2021/12/23 07:34:31;;;;;;;47.17;34.87;;;0.00;99.90;;;;;;5037237;28;20467;-71
2021/12/23 07:36:58;;;;;;;52.67;34.40;;;0.00;99.90;;;;;;5039918;28;20457;-69
2021/12/23 07:39:25;;;;;;;52.40;36.50;;;0.00;99.90;;;;;;5038598;28;20469;-72
2021/12/23 07:41:52;;;;;;;52.53;34.73;;;0.00;99.90;;;;;;5040436;28;20470;-72
2021/12/23 07:44:21;;;;;;;50.13;37.27;;;-0.10;99.90;;;;;;5042030;28;20492;-74
2021/12/23 07:46:50;;;;;;;49.40;34.20;;;0.00;99.90;;;;;;5045686;28;20569;-71
2021/12/23 07:49:18;;;;;;;50.53;34.07;;;0.00;99.90;;;;;;5036212;28;20472;-70
2021/12/23 07:51:45;;;;;;;47.27;34.60;;;0.10;99.90;;;;;;5039122;28;20467;-72
2021/12/23 07:54:13;;;;;;;48.47;34.50;;;0.10;99.90;;;;;;5034703;28;20966;-71
2021/12/23 07:56:40;;;;;;;51.10;36.73;;;0.10;99.90;;;;;;5036867;28;20462;-69
2021/12/23 07:59:06;;;;;;;46.70;32.33;;;0.20;99.90;;;;;;5040755;28;20463;-70
2021/12/23 08:01:34;;;;;;;46.30;36.70;;;0.20;99.90;;;;;;5044773;28;20461;-71
2021/12/23 08:04:00;;;;;;;47.60;35.87;;;0.20;99.90;;;;;;5039658;28;20965;-71
2021/12/23 08:06:28;;;;;;;47.27;34.10;;;0.20;99.90;;;;;;5032792;28;20973;-70
2021/12/23 08:08:55;;;;;;;48.43;36.03;;;0.30;99.90;;;;;;5037202;28;21010;-72
2021/12/23 08:11:22;;;;;;;49.10;34.90;;;0.30;99.90;;;;;;5034905;28;20990;-72
2021/12/23 08:13:49;;;;;;;40.50;32.73;;;0.30;99.90;;;;;;5034447;28;20469;-69
2021/12/23 08:16:16;;;;;;;51.70;35.30;;;0.30;99.90;;;;;;5039230;28;20804;-72
2021/12/23 08:18:43;;;;;;;51.77;35.13;;;0.40;99.90;;;;;;5035626;28;20467;-71
2021/12/23 08:21:10;;;;;;;48.77;36.37;;;0.40;99.90;;;;;;5033957;28;20467;-70
2021/12/23 08:23:39;;;;;;;49.70;35.57;;;0.40;99.90;;;;;;5042694;28;20855;-71
2021/12/23 08:26:14;;;;;;;58.90;35.83;;;0.50;99.90;;;;;;5042496;28;20467;-70
2021/12/23 08:28:41;;;;;;;52.10;35.97;;;0.40;99.90;;;;;;5049094;28;21461;-72
2021/12/23 08:31:07;;;;;;;55.87;34.50;;;0.40;99.90;;;;;;5041657;28;20464;-71
2021/12/23 08:33:34;;;;;;;45.23;33.60;;;0.40;99.90;;;;;;5037731;28;20494;-73
2021/12/23 08:36:02;;;;;;;47.00;35.60;;;0.40;99.90;;;;;;5044257;28;20839;-70
2021/12/23 08:38:29;;;;;;;49.37;35.10;;;0.40;99.90;;;;;;5045900;28;20506;-69
2021/12/23 08:40:57;;;;;;;51.03;34.00;;;0.40;99.90;;;;;;5046820;28;20470;-73
2021/12/23 08:43:24;;;;;;;50.77;35.53;;;0.40;99.90;;;;;;5042991;28;20874;-70
2021/12/23 08:45:51;;;;;;;41.53;34.33;;;0.50;99.90;;;;;;5045320;28;20816;-73
2021/12/23 08:48:19;;;;;;;49.17;36.90;;;0.60;99.90;;;;;;5037195;28;21489;-70
2021/12/23 08:50:46;;;;;;;52.33;35.77;;;0.60;99.90;;;;;;5035353;28;20982;-73
2021/12/23 08:53:13;;;;;;;58.03;34.90;;;0.60;99.90;;;;;;5039537;28;20473;-71
2021/12/23 08:55:39;;;;;;;55.30;36.20;;;0.60;99.90;;;;;;5039642;28;20462;-72
2021/12/23 08:58:08;;;;;;;45.00;34.83;;;0.60;99.90;;;;;;5037694;28;21132;-70
2021/12/23 09:00:36;;;;;;;46.33;33.83;;;0.70;99.90;;;;;;5037347;28;20470;-71
2021/12/23 09:03:05;;;;;;;61.40;34.67;;;0.70;99.90;;;;;;5040796;28;20497;-72
2021/12/23 09:05:32;;;;;;;40.77;32.97;;;0.70;99.90;;;;;;5043215;28;20553;-73
2021/12/23 09:07:59;;;;;;;49.93;34.30;;;0.80;99.90;;;;;;5040052;28;20491;-73
2021/12/23 09:10:26;;;;;;;47.93;33.70;;;0.90;99.90;;;;;;5044207;28;20467;-74
2021/12/23 09:12:53;;;;;;;43.50;34.53;;;0.80;99.90;;;;;;5034683;28;20503;-72
2021/12/23 09:15:21;;;;;;;50.27;34.00;;;0.80;99.90;;;;;;5040115;28;20461;-73
2021/12/23 09:17:48;;;;;;;44.20;32.63;;;1.00;99.90;;;;;;5039492;28;20505;-71
2021/12/23 09:20:19;;;;;;;48.70;33.50;;;1.00;99.90;;;;;;5042398;28;20540;-71
2021/12/23 09:22:46;;;;;;;49.70;34.60;;;1.10;99.90;;;;;;5039353;28;20473;-71
2021/12/23 09:25:23;;;;;;;45.67;34.53;;;1.30;99.90;;;;;;5031005;28;20496;-70
2021/12/23 09:28:02;;;;;;;48.77;34.20;;;1.40;99.90;;;;;;5036520;28;20513;-72
2021/12/23 09:33:15;;;;;;;48.90;34.80;;;1.50;99.90;;;;;;5042409;28;20495;-70
2021/12/23 09:35:42;;;;;;;57.57;34.53;;;1.60;99.90;;;;;;5047676;28;20474;-69
2021/12/23 09:38:10;;;;;;;41.90;34.50;;;1.70;99.90;;;;;;5046311;28;20848;-70
2021/12/23 09:40:38;;;;;;;43.57;32.50;;;1.70;99.90;;;;;;5039553;28;20988;-72
2021/12/23 09:43:08;;;;;;;43.70;34.33;;;1.60;99.90;;;;;;5043113;28;20463;-70
2021/12/23 09:45:37;;;;;;;48.10;33.03;;;1.60;99.90;;;;;;5039472;28;20472;-68
2021/12/23 09:48:05;;;;;;;50.50;37.00;;;1.70;99.90;;;;;;5045027;28;20978;-69
2021/12/23 09:50:36;;;;;;;46.30;34.03;;;1.80;99.90;;;;;;5038073;28;20902;-71
2021/12/23 09:53:06;;;;;;;38.33;33.57;;;1.90;99.90;;;;;;5035155;28;20459;-72
2021/12/23 09:55:36;;;;;;;46.73;33.13;;;1.90;99.90;;;;;;5038588;28;21019;-71
2021/12/23 09:58:05;;;;;;;46.43;32.50;;;1.90;99.90;;;;;;5045842;28;20969;-69
2021/12/23 10:00:35;;;;;;;44.30;33.20;;;1.90;99.90;;;;;;5044957;28;20466;-70
2021/12/23 10:03:03;;;;;;;43.20;32.30;;;2.00;99.90;;;;;;5042558;28;20471;-70
2021/12/23 10:05:32;;;;;;;52.83;34.20;;;2.00;99.90;;;;;;5036776;28;20581;-69
2021/12/23 10:08:01;;;;;;;46.67;33.37;;;2.00;99.90;;;;;;5036633;28;20499;-71
2021/12/23 10:10:33;;;;;;;41.83;31.47;;;2.00;99.90;;;;;;5038864;28;20467;-70
2021/12/23 10:30:25;;;;;;;37.43;31.43;;;2.40;99.90;;;;;;5041772;28;20463;-69
2021/12/23 10:38:28;;;;;;;44.80;32.73;;;2.40;99.90;;;;;;5032292;28;20978;-69
2021/12/23 10:40:57;;;;;;;43.90;31.97;;;2.40;99.90;;;;;;5034132;28;20474;-71
2021/12/23 10:43:28;;;;;;;44.03;31.93;;;2.40;99.90;;;;;;5034074;28;20475;-69
2021/12/23 10:45:58;;;;;;;43.73;33.60;;;2.50;99.90;;;;;;5034500;28;20969;-70
2021/12/23 10:48:28;;;;;;;41.67;32.00;;;2.50;99.90;;;;;;5038091;28;21113;-71
2021/12/23 10:51:01;;;;;;;42.70;32.70;;;2.60;99.90;;;;;;5044360;28;20457;-71
2021/12/23 10:53:49;;;;;;;43.63;32.43;;;2.80;99.90;;;;;;5038202;28;20464;-70
2021/12/23 10:59:14;;;;;;;45.53;32.53;;;2.90;99.90;;;;;;5036503;28;20463;-69
2021/12/23 11:02:17;;;;;;;47.30;31.83;;;3.00;99.90;;;;;;5034383;28;20981;-67
2021/12/23 11:05:06;;;;;;;38.97;32.20;;;3.10;99.90;;;;;;5032992;28;20483;-70
2021/12/23 11:07:51;;;;;;;40.00;33.47;;;3.10;99.90;;;;;;5038961;28;20621;-70
2021/12/23 11:10:36;;;;;;;45.60;31.80;;;3.20;99.90;;;;;;5040778;28;20954;-70
2021/12/23 11:38:30;;;;;;;46.30;31.97;;;3.50;99.90;;;;;;5040376;28;20505;-71
2021/12/23 11:41:04;;;;;;;46.87;31.53;;;3.60;99.90;;;;;;5042942;28;20825;-68
2021/12/23 11:43:46;;;;;;;60.47;30.63;;;3.60;99.90;;;;;;5042812;28;21181;-69
2021/12/23 11:46:14;;;;;;;46.53;32.20;;;3.60;99.90;;;;;;5042115;28;20473;-71
2021/12/23 11:48:44;;;;;;;41.43;30.77;;;3.50;99.90;;;;;;5038055;28;20484;-71
2021/12/23 11:51:16;;;;;;;45.07;32.43;;;3.40;99.90;;;;;;5043532;28;20468;-72
2021/12/23 11:53:47;;;;;;;44.03;31.30;;;3.40;99.90;;;;;;5041919;28;20565;-68
2021/12/23 11:56:17;;;;;;;52.17;33.03;;;3.50;99.90;;;;;;5045643;28;20492;-69
2021/12/23 11:58:47;;;;;;;42.63;30.30;;;3.60;99.90;;;;;;5038377;28;20486;-69
2021/12/23 12:01:19;;;;;;;50.00;30.00;;;3.60;99.90;;;;;;5041099;28;20456;-69
2021/12/23 12:03:58;;;;;;;47.27;32.00;;;3.70;99.90;;;;;;5039030;28;20476;-69
2021/12/23 12:06:28;;;;;;;44.87;32.40;;;3.70;99.90;;;;;;5042911;28;20463;-69
2021/12/23 12:08:57;;;;;;;43.57;31.00;;;3.70;99.90;;;;;;5037268;28;20966;-69
2021/12/23 12:11:27;;;;;;;38.50;31.00;;;3.80;99.90;;;;;;5035985;28;20497;-70
2021/12/23 12:13:54;;;;;;;45.77;31.23;;;3.80;99.90;;;;;;5033190;28;20461;-71
2021/12/23 12:16:33;;;;;;;38.57;31.30;;;3.90;99.90;;;;;;5040356;28;20478;-69
2021/12/23 12:19:01;;;;;;;35.23;29.93;;;3.70;99.90;;;;;;5036983;28;20467;-69
2021/12/23 12:21:31;;;;;;;41.77;30.10;;;3.80;99.90;;;;;;5038284;28;20468;-69
2021/12/23 12:24:13;;;;;;;38.37;31.50;;;3.90;99.90;;;;;;5037046;28;20488;-71
2021/12/23 12:26:58;;;;;;;41.33;30.53;;;4.00;99.90;;;;;;5041098;28;20448;-71
2021/12/23 12:29:34;;;;;;;39.90;31.33;;;4.10;99.90;;;;;;5035870;28;21073;-70
2021/12/23 12:32:01;;;;;;;36.40;29.57;;;4.20;99.90;;;;;;5037649;28;20487;-72
2021/12/23 12:34:33;;;;;;;38.63;30.57;;;4.40;99.90;;;;;;5033764;28;20467;-70
2021/12/23 12:37:01;;;;;;;37.07;29.30;;;4.50;99.90;;;;;;5041222;28;21688;-71
2021/12/23 12:39:33;;;;;;;41.70;28.77;;;4.50;99.90;;;;;;5039809;28;20464;-71
2021/12/23 12:42:07;;;;;;;38.40;29.70;;;4.60;99.90;;;;;;5033610;28;20456;-70
2021/12/23 12:44:54;;;;;;;34.90;30.63;;;4.70;99.90;;;;;;5033183;28;20465;-71
2021/12/23 12:47:26;;;;;;;38.63;31.47;;;4.80;99.90;;;;;;5037069;28;20538;-70
2021/12/23 12:50:07;;;;;;;44.17;32.40;;;5.00;99.90;;;;;;5039130;28;20487;-71
2021/12/23 12:52:36;;;;;;;46.60;31.17;;;5.10;99.90;;;;;;5034579;28;20990;-71
2021/12/23 12:55:07;;;;;;;49.97;32.73;;;5.30;99.90;;;;;;5038244;28;20570;-71
2021/12/23 12:57:39;;;;;;;37.80;31.40;;;5.50;99.90;;;;;;5041204;28;20487;-69
2021/12/23 13:00:22;;;;;;;43.43;30.10;;;5.60;99.90;;;;;;5031522;28;20468;-71
2021/12/23 13:02:54;;;;;;;52.60;31.10;;;5.70;99.90;;;;;;5034047;28;21117;-72
2021/12/23 13:05:31;;;;;;;41.00;30.67;;;5.80;99.90;;;;;;5034591;28;20495;-68
2021/12/23 13:08:05;;;;;;;44.97;30.73;;;5.70;99.90;;;;;;5037350;28;20556;-71
2021/12/23 13:10:34;;;;;;;51.33;33.70;;;5.70;99.90;;;;;;5040785;28;20477;-72
2021/12/23 13:13:05;;;;;;;39.23;31.13;;;5.70;99.90;;;;;;5040439;28;20568;-72
2021/12/23 13:15:34;;;;;;;38.70;33.10;;;5.50;99.90;;;;;;5039510;28;20563;-69
2021/12/23 13:18:05;;;;;;;49.73;29.73;;;5.60;99.90;;;;;;5034385;28;20483;-70
2021/12/23 13:20:36;;;;;;;43.23;31.30;;;5.60;99.90;;;;;;5033939;28;20462;-72
2021/12/23 13:23:06;;;;;;;48.13;30.40;;;5.60;99.90;;;;;;5031018;28;20468;-72
2021/12/23 13:25:33;;;;;;;45.23;32.00;;;5.60;99.90;;;;;;5041177;28;20476;-69
2021/12/23 13:28:06;;;;;;;44.27;33.13;;;5.60;99.90;;;;;;5036846;28;20465;-69
2021/12/23 13:30:33;;;;;;;46.37;30.93;;;5.50;99.90;;;;;;5033894;28;20464;-68
2021/12/23 13:33:01;;;;;;;42.13;30.43;;;5.30;99.90;;;;;;5040134;28;20582;-72
2021/12/23 13:35:30;;;;;;;42.63;31.80;;;5.20;99.90;;;;;;5038365;28;20960;-70
2021/12/23 13:37:57;;;;;;;42.70;30.33;;;5.30;99.90;;;;;;5043269;28;20495;-72